createdAt,value
2023-05-16T00:03:25.767Z,9.10
2023-05-16T00:05:58.568Z,9.19
2023-05-16T00:09:01.541Z,9.20
2023-05-16T00:11:33.856Z,9.20
2023-05-16T00:14:05.860Z,9.25
2023-05-16T00:16:37.833Z,9.16
2023-05-16T00:19:09.381Z,9.15
2023-05-16T00:21:40.995Z,9.18
2023-05-16T00:24:10.671Z,9.23
2023-05-16T00:26:44.014Z,9.19
2023-05-16T00:29:14.645Z,9.24
2023-05-16T00:31:55.343Z,9.18
2023-05-16T00:34:42.520Z,9.22
2023-05-16T00:37:15.891Z,9.22
2023-05-16T00:39:44.959Z,9.26
2023-05-16T00:42:27.157Z,9.26
2023-05-16T00:45:00.874Z,9.20
2023-05-16T00:47:41.825Z,9.28
2023-05-16T00:50:22.897Z,9.32
2023-05-16T00:52:52.561Z,9.35
2023-05-16T00:55:30.484Z,9.34
2023-05-16T00:58:12.402Z,9.32
2023-05-16T01:00:50.894Z,9.34
2023-05-16T01:03:27.999Z,9.28
2023-05-16T01:06:01.517Z,9.25
2023-05-16T01:08:30.849Z,9.21
2023-05-16T01:11:25.396Z,9.11
2023-05-16T01:14:29.261Z,9.24
2023-05-16T01:17:28.970Z,9.27
2023-05-16T01:20:17.960Z,9.30
2023-05-16T01:23:05.328Z,9.33
2023-05-16T01:26:06.477Z,9.37
2023-05-16T01:28:39.108Z,9.40
2023-05-16T01:31:09.331Z,9.33
2023-05-16T01:33:44.402Z,9.39
2023-05-16T01:36:40.444Z,9.35
2023-05-16T01:39:23.577Z,9.41
2023-05-16T01:42:15.827Z,9.40
2023-05-16T01:45:13.936Z,9.39
2023-05-16T01:47:50.585Z,9.35
2023-05-16T01:50:36.321Z,9.30
2023-05-16T01:53:22.443Z,9.27
2023-05-16T01:56:15.318Z,9.18
2023-05-16T01:58:52.272Z,9.11
2023-05-16T02:01:21.695Z,9.06
2023-05-16T02:03:50.971Z,9.18
2023-05-16T02:06:23.539Z,9.26
2023-05-16T02:08:51.022Z,9.29
2023-05-16T02:11:21.230Z,9.31
2023-05-16T02:13:47.835Z,9.27
2023-05-16T02:16:15.771Z,9.26
2023-05-16T02:18:42.592Z,9.19
2023-05-16T02:21:11.696Z,9.25
2023-05-16T02:23:38.339Z,9.21
2023-05-16T02:26:07.477Z,9.29
2023-05-16T02:28:34.119Z,9.25
2023-05-16T02:31:01.448Z,9.26
2023-05-16T02:33:29.475Z,9.23
2023-05-16T02:35:56.399Z,9.33
2023-05-16T02:38:28.614Z,9.27
2023-05-16T02:40:56.010Z,9.32
2023-05-16T02:43:22.879Z,9.29
2023-05-16T02:45:54.011Z,9.26
2023-05-16T02:48:25.403Z,9.20
2023-05-16T02:51:00.353Z,9.20
2023-05-16T02:53:29.424Z,9.22
2023-05-16T02:55:56.790Z,9.24
2023-05-16T02:58:23.621Z,9.23
2023-05-16T03:00:50.813Z,9.16
2023-05-16T03:03:17.637Z,9.13
2023-05-16T03:05:44.352Z,9.08
2023-05-16T03:08:13.514Z,9.06
2023-05-16T03:10:40.178Z,9.04
2023-05-16T03:13:06.813Z,9.12
2023-05-16T03:15:33.835Z,9.13
2023-05-16T03:18:01.127Z,9.06
2023-05-16T03:20:27.829Z,8.98
2023-05-16T03:22:54.444Z,8.96
2023-05-16T03:25:21.199Z,8.96
2023-05-16T03:27:50.707Z,8.99
2023-05-16T03:30:22.024Z,9.13
2023-05-16T03:32:52.484Z,9.20
2023-05-16T03:35:21.930Z,9.13
2023-05-16T03:37:48.600Z,9.14
2023-05-16T03:40:15.231Z,9.19
2023-05-16T03:42:41.785Z,9.10
2023-05-16T03:45:12.097Z,9.06
2023-05-16T03:47:38.771Z,9.09
2023-05-16T03:50:07.790Z,9.21
2023-05-16T03:52:34.699Z,9.21
2023-05-16T03:55:02.950Z,9.31
2023-05-16T03:57:33.562Z,9.35
2023-05-16T04:00:11.083Z,9.40
2023-05-16T04:02:44.143Z,9.40
2023-05-16T04:05:14.567Z,9.34
2023-05-16T04:07:41.282Z,9.25
2023-05-16T04:10:10.914Z,9.22
2023-05-16T04:12:39.802Z,9.23
2023-05-16T04:15:07.257Z,9.33
2023-05-16T04:17:34.450Z,9.34
2023-05-16T04:20:01.397Z,9.44
2023-05-16T04:22:27.934Z,9.50
2023-05-16T04:24:54.631Z,9.40
2023-05-16T04:27:24.051Z,9.41
2023-05-16T04:29:50.689Z,9.42
2023-05-16T04:32:17.507Z,9.35
2023-05-16T04:34:49.315Z,9.43
2023-05-16T04:37:16.336Z,9.49
2023-05-16T04:39:42.915Z,9.48
2023-05-16T04:42:09.601Z,9.57
2023-05-16T04:44:36.543Z,9.53
2023-05-16T04:47:03.295Z,9.44
2023-05-16T04:49:30.080Z,9.42
2023-05-16T04:51:56.934Z,9.32
2023-05-16T04:54:23.873Z,9.34
2023-05-16T04:56:53.160Z,9.50
2023-05-16T04:59:28.360Z,9.60
2023-05-16T05:01:57.673Z,9.66
2023-05-16T05:04:24.885Z,9.60
2023-05-16T05:06:54.473Z,9.58
2023-05-16T05:09:24.540Z,9.59
2023-05-16T05:11:51.262Z,9.56
2023-05-16T05:14:20.490Z,9.68
2023-05-16T05:16:47.549Z,9.69
2023-05-16T05:19:20.445Z,9.75
2023-05-16T05:21:47.153Z,9.71
2023-05-16T05:24:23.120Z,9.76
2023-05-16T05:26:50.086Z,9.77
2023-05-16T05:29:17.014Z,9.71
2023-05-16T05:31:46.381Z,9.77
2023-05-16T05:34:13.421Z,9.81
2023-05-16T05:36:42.140Z,9.80
2023-05-16T05:39:14.348Z,9.75
2023-05-16T05:41:46.034Z,9.76
2023-05-16T05:44:21.842Z,9.73
2023-05-16T05:46:56.806Z,9.79
2023-05-16T05:49:29.177Z,9.85
2023-05-16T05:51:58.319Z,9.85
2023-05-16T05:54:30.645Z,9.91
2023-05-16T05:57:00.545Z,9.89
2023-05-16T05:59:34.758Z,9.92
2023-05-16T06:02:04.732Z,9.94
2023-05-16T06:04:37.245Z,9.94
2023-05-16T06:07:08.044Z,9.96
2023-05-16T06:09:35.444Z,9.89
2023-05-16T06:12:15.334Z,9.84
2023-05-16T06:14:52.981Z,9.85
2023-05-16T06:17:22.116Z,9.88
2023-05-16T06:19:55.191Z,9.86
2023-05-16T06:22:24.712Z,9.84
2023-05-16T06:24:56.551Z,9.82
2023-05-16T06:27:52.854Z,9.74
2023-05-16T06:30:29.212Z,9.59
2023-05-16T06:33:12.846Z,9.52
2023-05-16T06:35:43.046Z,9.52
2023-05-16T06:38:10.404Z,9.61
2023-05-16T06:40:41.977Z,9.56
2023-05-16T06:43:15.868Z,9.50
2023-05-16T06:45:55.657Z,9.49
2023-05-16T06:48:26.041Z,9.45
2023-05-16T06:50:55.604Z,9.53
2023-05-16T06:53:26.004Z,9.53
2023-05-16T06:55:59.991Z,9.57
2023-05-16T06:58:30.350Z,9.44
2023-05-16T07:00:59.935Z,9.50
2023-05-16T07:03:34.618Z,9.66
2023-05-16T07:06:08.781Z,9.56
2023-05-16T07:08:40.683Z,9.52
2023-05-16T07:11:12.436Z,9.57
2023-05-16T07:13:58.266Z,9.46
2023-05-16T07:16:29.304Z,9.57
2023-05-16T07:19:15.275Z,9.57
2023-05-16T07:21:56.971Z,9.68
2023-05-16T07:24:30.190Z,9.54
2023-05-16T07:27:01.989Z,9.51
2023-05-16T07:29:33.478Z,9.52
2023-05-16T07:32:08.654Z,9.46
2023-05-16T07:34:44.112Z,9.66
2023-05-16T07:37:23.074Z,9.82
2023-05-16T07:40:10.553Z,9.89
2023-05-16T07:42:45.094Z,9.97
2023-05-16T07:45:13.844Z,9.86
2023-05-16T07:47:44.312Z,9.97
2023-05-16T07:50:14.955Z,10.08
2023-05-16T07:52:49.779Z,10.06
2023-05-16T07:55:31.076Z,9.99
2023-05-16T07:58:02.462Z,10.01
2023-05-16T08:00:32.488Z,10.06
2023-05-16T08:03:23.209Z,10.09
2023-05-16T08:05:58.133Z,10.09
2023-05-16T08:08:34.897Z,10.12
2023-05-16T08:11:16.538Z,10.18
2023-05-16T08:13:46.068Z,10.10
2023-05-16T08:16:18.546Z,10.02
2023-05-16T08:18:51.854Z,9.99
2023-05-16T08:21:20.097Z,9.95
2023-05-16T08:23:55.229Z,10.02
2023-05-16T08:26:49.621Z,10.09
2023-05-16T08:29:20.845Z,10.21
2023-05-16T08:32:16.948Z,10.28
2023-05-16T08:34:53.334Z,10.29
2023-05-16T08:37:24.672Z,10.40
2023-05-16T08:39:56.660Z,10.48
2023-05-16T08:42:26.084Z,10.51
2023-05-16T08:45:03.219Z,10.48
2023-05-16T08:47:37.563Z,10.56
2023-05-16T08:50:19.354Z,10.49
2023-05-16T08:52:52.437Z,10.40
2023-05-16T08:55:26.128Z,10.25
2023-05-16T08:57:58.864Z,10.30
2023-05-16T09:00:40.086Z,10.28
2023-05-16T09:03:10.346Z,10.35
2023-05-16T09:05:39.942Z,10.38
2023-05-16T09:08:16.203Z,10.38
2023-05-16T09:10:45.945Z,10.44
2023-05-16T09:13:21.974Z,10.44
2023-05-16T09:16:11.953Z,10.46
2023-05-16T09:18:49.008Z,10.38
2023-05-16T09:21:24.938Z,10.40
2023-05-16T09:23:55.993Z,10.37
2023-05-16T09:26:33.011Z,10.41
2023-05-16T09:29:03.055Z,10.24
2023-05-16T09:31:54.446Z,10.18
2023-05-16T09:34:31.349Z,10.21
2023-05-16T09:37:07.854Z,10.22
2023-05-16T09:39:39.206Z,10.17
2023-05-16T09:42:09.250Z,10.08
2023-05-16T09:44:39.356Z,9.94
2023-05-16T09:47:11.864Z,10.03
2023-05-16T09:49:39.806Z,10.00
2023-05-16T09:52:19.001Z,9.50
2023-05-16T09:54:51.671Z,9.52
2023-05-16T09:57:21.513Z,9.62
2023-05-16T09:59:51.418Z,9.67
2023-05-16T10:02:23.173Z,9.76
2023-05-16T10:04:56.952Z,9.89
2023-05-16T10:07:26.350Z,9.97
2023-05-16T10:09:56.969Z,10.01
2023-05-16T10:12:37.316Z,10.01
2023-05-16T10:15:09.142Z,10.04
2023-05-16T10:17:47.704Z,9.90
2023-05-16T10:20:17.782Z,9.69
2023-05-16T10:23:01.602Z,9.67
2023-05-16T10:25:41.528Z,9.52
2023-05-16T10:28:12.376Z,9.51
2023-05-16T10:30:46.820Z,9.67
2023-05-16T10:33:20.025Z,9.84
2023-05-16T10:36:11.253Z,9.94
2023-05-16T10:38:47.373Z,9.64
2023-05-16T10:41:19.765Z,9.59
2023-05-16T10:44:04.884Z,9.71
2023-05-16T10:46:39.925Z,9.82
2023-05-16T10:49:28.404Z,9.95
2023-05-16T10:52:15.046Z,9.94
2023-05-16T10:54:54.562Z,9.86
2023-05-16T10:57:26.256Z,9.88
2023-05-16T11:00:02.192Z,9.91
2023-05-16T11:02:43.640Z,9.97
2023-05-16T11:05:28.882Z,9.84
2023-05-16T11:08:17.374Z,9.92
2023-05-16T11:10:51.310Z,9.96
2023-05-16T11:13:30.850Z,10.07
2023-05-16T11:16:31.948Z,10.20
2023-05-16T11:19:12.195Z,10.03
2023-05-16T11:22:10.791Z,9.99
2023-05-16T11:24:40.372Z,9.97
2023-05-16T11:27:09.114Z,9.85
2023-05-16T11:29:38.650Z,9.85
2023-05-16T11:32:10.188Z,9.82
2023-05-16T11:34:48.792Z,9.73
2023-05-16T11:37:17.449Z,9.72
2023-05-16T11:42:42.689Z,9.69
2023-05-16T11:45:21.958Z,9.74
2023-05-16T11:47:55.067Z,9.77
2023-05-16T11:50:25.267Z,9.77
2023-05-16T11:52:57.437Z,9.72
2023-05-16T11:55:41.698Z,9.75
2023-05-16T11:58:14.156Z,9.74
2023-05-16T12:00:49.736Z,9.65
2023-05-16T12:03:26.388Z,9.60
2023-05-16T12:05:59.132Z,9.68
2023-05-16T12:08:32.182Z,9.73
2023-05-16T12:11:11.082Z,9.55
2023-05-16T12:14:14.726Z,9.51
2023-05-16T12:16:56.868Z,9.68
2023-05-16T12:19:35.737Z,9.81
2023-05-16T12:22:24.575Z,9.87
2023-05-16T12:25:45.805Z,9.91
2023-05-16T12:28:25.253Z,10.22
2023-05-16T12:31:31.236Z,10.34
2023-05-16T12:34:04.012Z,10.30
2023-05-16T12:37:08.415Z,10.53
2023-05-16T12:39:40.483Z,10.80
2023-05-16T12:42:18.475Z,10.89
2023-05-16T12:44:48.822Z,11.01
2023-05-16T12:47:20.704Z,11.11
2023-05-16T12:49:53.484Z,10.81
2023-05-16T12:52:23.137Z,10.52
2023-05-16T12:54:59.358Z,10.48
2023-05-16T12:57:29.591Z,10.41
2023-05-16T13:00:19.746Z,10.29
2023-05-16T13:02:54.075Z,10.45
2023-05-16T13:05:33.325Z,10.87
2023-05-16T13:08:04.424Z,11.01
2023-05-16T13:10:36.217Z,10.84
2023-05-16T13:13:07.291Z,10.76
2023-05-16T13:15:40.044Z,10.69
2023-05-16T13:18:07.994Z,10.47
2023-05-16T13:20:36.811Z,10.36
2023-05-16T13:23:08.610Z,10.33
2023-05-16T13:25:40.489Z,10.33
2023-05-16T13:28:09.279Z,10.17
2023-05-16T13:30:39.350Z,10.12
2023-05-16T13:33:10.953Z,9.86
2023-05-16T13:35:40.317Z,9.68
2023-05-16T13:38:11.857Z,9.75
2023-05-16T13:40:39.588Z,9.74
2023-05-16T13:43:12.466Z,9.91
2023-05-16T13:45:40.984Z,9.88
2023-05-16T13:48:15.578Z,9.87
2023-05-16T13:50:53.314Z,9.96
2023-05-16T13:53:22.544Z,9.90
2023-05-16T13:55:58.931Z,9.96
2023-05-16T13:58:27.869Z,9.89
2023-05-16T14:01:03.207Z,9.93
2023-05-16T14:03:32.514Z,9.91
2023-05-16T14:06:03.249Z,9.76
2023-05-16T14:08:30.471Z,9.91
2023-05-16T14:10:57.974Z,9.95
2023-05-16T14:13:26.490Z,10.01
2023-05-16T14:15:56.111Z,10.04
2023-05-16T14:18:23.602Z,9.88
2023-05-16T14:20:53.411Z,9.84
2023-05-16T14:23:22.959Z,9.83
2023-05-16T14:25:51.986Z,9.67
2023-05-16T14:28:21.331Z,9.53
2023-05-16T14:30:50.876Z,9.51
2023-05-16T14:33:18.266Z,9.54
2023-05-16T14:35:46.061Z,9.43
2023-05-16T14:38:14.893Z,9.42
2023-05-16T14:40:42.203Z,9.46
2023-05-16T14:43:09.361Z,9.37
2023-05-16T14:45:39.789Z,9.42
2023-05-16T14:48:09.737Z,9.43
2023-05-16T14:50:39.217Z,9.42
2023-05-16T14:53:07.557Z,9.44
2023-05-16T14:55:36.673Z,9.46
2023-05-16T14:58:04.937Z,9.46
2023-05-16T15:00:33.154Z,9.43
2023-05-16T15:03:00.374Z,9.49
2023-05-16T15:05:29.738Z,9.46
2023-05-16T15:07:58.988Z,9.43
2023-05-16T15:10:26.351Z,9.52
2023-05-16T15:12:54.551Z,9.59
2023-05-16T15:15:22.475Z,9.65
2023-05-16T15:17:51.357Z,9.69
2023-05-16T15:20:19.445Z,9.56
2023-05-16T15:22:48.553Z,9.67
2023-05-16T15:25:18.177Z,9.70
2023-05-16T15:27:48.339Z,9.60
2023-05-16T15:30:21.088Z,9.53
2023-05-16T15:32:50.426Z,9.58
2023-05-16T15:35:18.602Z,9.53
2023-05-16T15:37:46.864Z,9.42
2023-05-16T15:40:19.654Z,9.26
2023-05-16T15:42:51.968Z,9.26
2023-05-16T15:45:19.778Z,9.15
2023-05-16T15:47:48.740Z,9.09
2023-05-16T15:50:20.145Z,9.08
2023-05-16T15:52:50.111Z,9.11
2023-05-16T15:55:19.057Z,9.21
2023-05-16T15:57:49.441Z,9.20
2023-05-16T16:00:19.287Z,9.10
2023-05-16T16:02:48.341Z,9.11
2023-05-16T16:05:19.983Z,9.10
2023-05-16T16:07:50.389Z,9.11
2023-05-16T16:10:22.567Z,9.05
2023-05-16T16:13:04.616Z,9.00
2023-05-16T16:15:36.177Z,8.90
2023-05-16T16:18:07.406Z,8.90
2023-05-16T16:20:36.985Z,8.84
2023-05-16T16:23:06.738Z,8.83
2023-05-16T16:25:36.778Z,8.75
2023-05-16T16:28:06.720Z,8.71
2023-05-16T16:30:36.798Z,8.75
2023-05-16T16:33:06.684Z,8.70
2023-05-16T16:35:36.881Z,8.53
2023-05-16T16:38:10.331Z,8.48
2023-05-16T16:40:39.648Z,8.49
2023-05-16T16:43:09.548Z,8.50
2023-05-16T16:45:38.734Z,8.46
2023-05-16T16:48:14.261Z,8.37
2023-05-16T16:50:45.179Z,8.37
2023-05-16T16:53:13.034Z,8.45
2023-05-16T16:55:41.427Z,8.42
2023-05-16T16:58:09.210Z,8.24
2023-05-16T17:00:45.983Z,8.24
2023-05-16T17:03:13.508Z,8.22
2023-05-16T17:05:43.700Z,8.26
2023-05-16T17:08:13.735Z,8.25
2023-05-16T17:10:43.053Z,8.23
2023-05-16T17:13:17.867Z,8.19
2023-05-16T17:15:46.233Z,8.18
2023-05-16T17:18:14.868Z,8.11
2023-05-16T17:20:42.980Z,8.11
2023-05-16T17:23:11.806Z,8.09
2023-05-16T17:25:47.513Z,8.09
2023-05-16T17:28:22.945Z,8.04
2023-05-16T17:30:57.088Z,8.04
2023-05-16T17:33:26.736Z,8.01
2023-05-16T17:35:57.325Z,7.99
2023-05-16T17:38:29.421Z,7.86
2023-05-16T17:40:59.644Z,7.81
2023-05-16T17:43:30.570Z,7.78
2023-05-16T17:45:59.788Z,7.75
2023-05-16T17:48:29.758Z,7.71
2023-05-16T17:51:03.122Z,7.57
2023-05-16T17:53:33.582Z,7.59
2023-05-16T17:56:01.309Z,7.48
2023-05-16T17:58:28.888Z,7.50
2023-05-16T18:00:56.751Z,7.45
2023-05-16T18:03:26.357Z,7.45
2023-05-16T18:05:54.456Z,7.36
2023-05-16T18:08:23.005Z,7.33
2023-05-16T18:10:53.462Z,7.28
2023-05-16T18:13:22.541Z,7.22
2023-05-16T18:15:53.092Z,7.19
2023-05-16T18:18:23.139Z,7.22
2023-05-16T18:20:52.321Z,7.14
2023-05-16T18:23:21.296Z,7.09
2023-05-16T18:25:51.123Z,7.04
2023-05-16T18:28:20.664Z,7.01
2023-05-16T18:30:50.647Z,7.01
2023-05-16T18:33:19.623Z,7.07
2023-05-16T18:35:48.050Z,6.95
2023-05-16T18:38:28.317Z,7.01
2023-05-16T18:40:59.041Z,6.95
2023-05-16T18:43:27.471Z,6.97
2023-05-16T18:45:58.725Z,6.95
2023-05-16T18:48:28.081Z,6.86
2023-05-16T18:51:00.319Z,6.85
2023-05-16T18:53:29.599Z,6.83
2023-05-16T18:55:58.774Z,6.78
2023-05-16T18:58:28.198Z,6.73
2023-05-16T19:00:56.647Z,6.73
2023-05-16T19:03:24.069Z,6.71
2023-05-16T19:05:55.083Z,6.66
2023-05-16T19:08:25.597Z,6.68
2023-05-16T19:10:57.269Z,6.68
2023-05-16T19:13:25.112Z,6.66
2023-05-16T19:15:54.214Z,6.70
2023-05-16T19:18:24.561Z,6.66
2023-05-16T19:20:54.445Z,6.60
2023-05-16T19:23:56.949Z,6.60
2023-05-16T19:26:28.491Z,6.61
2023-05-16T19:29:02.706Z,6.51
2023-05-16T19:31:37.441Z,6.46
2023-05-16T19:34:07.734Z,6.48
2023-05-16T19:36:40.136Z,6.46
2023-05-16T19:39:08.822Z,6.41
2023-05-16T19:41:41.908Z,6.35
2023-05-16T19:44:16.307Z,6.33
2023-05-16T19:46:46.586Z,6.29
2023-05-16T19:49:21.803Z,6.21
2023-05-16T19:51:51.126Z,6.16
2023-05-16T19:54:24.323Z,6.13
2023-05-16T19:57:04.072Z,6.02
2023-05-16T19:59:36.189Z,5.98
2023-05-16T20:02:05.058Z,5.93
2023-05-16T20:04:37.682Z,5.88
2023-05-16T20:07:08.496Z,5.86
2023-05-16T20:09:47.631Z,5.79
2023-05-16T20:12:18.539Z,5.74
2023-05-16T20:15:31.368Z,5.69
2023-05-16T20:18:01.314Z,5.66
2023-05-16T20:20:31.727Z,5.62
2023-05-16T20:23:01.825Z,5.61
2023-05-16T20:25:30.465Z,5.54
2023-05-16T20:28:08.896Z,5.54
2023-05-16T20:30:45.187Z,5.56
2023-05-16T20:33:40.496Z,5.44
2023-05-16T20:36:12.882Z,5.47
2023-05-16T20:38:51.766Z,5.42
2023-05-16T20:41:25.854Z,5.41
2023-05-16T20:44:02.658Z,5.40
2023-05-16T20:46:32.710Z,5.41
2023-05-16T20:49:16.598Z,5.40
2023-05-16T20:51:58.889Z,5.37
2023-05-16T20:57:20.633Z,5.36
2023-05-16T20:59:58.309Z,5.30
2023-05-16T21:02:29.692Z,5.27
2023-05-16T21:05:14.489Z,5.26
2023-05-16T21:08:11.050Z,5.23
2023-05-16T21:10:39.950Z,5.18
2023-05-16T21:13:11.788Z,5.19
2023-05-16T21:15:43.823Z,5.23
2023-05-16T21:18:18.227Z,5.28
2023-05-16T21:20:55.031Z,5.28
2023-05-16T21:23:28.810Z,5.26
2023-05-16T21:26:01.575Z,5.24
2023-05-16T21:28:34.826Z,5.19
2023-05-16T21:31:11.479Z,5.19
2023-05-16T21:33:39.298Z,5.13
2023-05-16T21:36:12.954Z,5.09
2023-05-16T21:38:41.121Z,5.03
2023-05-16T21:41:11.461Z,5.06
2023-05-16T21:43:39.775Z,5.02
2023-05-16T21:46:11.130Z,5.00
2023-05-16T21:48:42.477Z,4.96
2023-05-16T21:51:11.300Z,4.93
2023-05-16T21:53:42.128Z,4.86
2023-05-16T21:56:13.516Z,4.83
2023-05-16T21:58:47.594Z,4.80
2023-05-16T22:01:16.847Z,4.79
2023-05-16T22:03:45.069Z,4.74
2023-05-16T22:06:15.582Z,4.68
2023-05-16T22:08:47.978Z,4.67
2023-05-16T22:11:18.493Z,4.67
2023-05-16T22:13:46.895Z,4.66
2023-05-16T22:16:19.381Z,4.62
2023-05-16T22:18:50.399Z,4.48
2023-05-16T22:21:21.281Z,4.51
2023-05-16T22:23:52.466Z,4.52
2023-05-16T22:26:22.273Z,4.49
2023-05-16T22:28:53.357Z,4.46
2023-05-16T22:31:21.472Z,4.42
2023-05-16T22:33:51.168Z,4.37
2023-05-16T22:36:22.080Z,4.29
2023-05-16T22:38:52.619Z,4.23
2023-05-16T22:41:20.887Z,4.23
2023-05-16T22:43:51.838Z,4.25
2023-05-16T22:46:20.334Z,4.24
2023-05-16T22:48:48.711Z,4.17
2023-05-16T22:51:16.998Z,4.15
2023-05-16T22:53:50.867Z,4.06
2023-05-16T22:56:20.910Z,4.06
2023-05-16T22:58:49.448Z,4.05
2023-05-16T23:01:22.656Z,4.02
2023-05-16T23:03:56.953Z,3.96
2023-05-16T23:06:32.537Z,3.96
2023-05-16T23:09:06.506Z,3.94
2023-05-16T23:11:37.010Z,3.93
2023-05-16T23:14:08.210Z,3.95
2023-05-16T23:16:39.341Z,3.87
2023-05-16T23:19:10.336Z,3.80
2023-05-16T23:21:41.111Z,3.79
2023-05-16T23:24:12.040Z,3.88
2023-05-16T23:26:40.427Z,3.82
2023-05-16T23:29:15.450Z,3.87
2023-05-16T23:31:43.656Z,3.85
2023-05-16T23:34:14.020Z,3.86
2023-05-16T23:36:47.462Z,3.81
2023-05-16T23:39:15.859Z,3.79
2023-05-16T23:41:44.166Z,3.78
2023-05-16T23:44:16.940Z,3.78
2023-05-16T23:46:46.354Z,3.78
2023-05-16T23:49:21.971Z,3.75
2023-05-16T23:51:57.884Z,3.69
2023-05-16T23:54:31.518Z,3.65
2023-05-16T23:57:01.906Z,3.66
2023-05-16T23:59:42.088Z,3.66
